createdAt,value
2023-01-28T00:00:40.142Z,86.60
2023-01-28T00:03:25.761Z,86.90
2023-01-28T00:06:14.437Z,86.60
2023-01-28T00:08:59.743Z,86.60
2023-01-28T00:11:45.446Z,87.00
2023-01-28T00:14:30.745Z,86.70
2023-01-28T00:17:16.422Z,86.30
2023-01-28T00:20:01.700Z,87.20
2023-01-28T00:22:52.171Z,86.50
2023-01-28T00:25:37.592Z,86.10
2023-01-28T00:28:23.052Z,86.30
2023-01-28T00:31:11.006Z,87.10
2023-01-28T00:33:57.187Z,86.50
2023-01-28T00:36:43.062Z,86.30
2023-01-28T00:39:28.430Z,86.20
2023-01-28T00:42:14.131Z,86.10
2023-01-28T00:44:59.435Z,85.50
2023-01-28T00:47:45.421Z,85.70
2023-01-28T00:50:31.076Z,85.20
2023-01-28T00:53:17.101Z,85.10
2023-01-28T00:56:04.029Z,84.90
2023-01-28T00:58:49.598Z,85.40
2023-01-28T01:01:35.358Z,85.90
2023-01-28T01:04:26.803Z,85.60
2023-01-28T01:07:12.682Z,84.20
2023-01-28T01:10:04.829Z,85.40
2023-01-28T01:12:50.442Z,84.90
2023-01-28T01:15:35.885Z,85.10
2023-01-28T01:18:21.141Z,84.70
2023-01-28T01:21:12.042Z,84.30
2023-01-28T01:23:57.632Z,84.10
2023-01-28T01:26:43.063Z,84.60
2023-01-28T01:29:29.357Z,85.30
2023-01-28T01:32:14.824Z,84.10
2023-01-28T01:35:00.030Z,83.80
2023-01-28T01:37:45.414Z,83.90
2023-01-28T01:40:30.919Z,84.10
2023-01-28T01:43:21.725Z,84.40
2023-01-28T01:46:07.420Z,85.00
2023-01-28T01:48:54.978Z,85.90
2023-01-28T01:51:41.429Z,85.50
2023-01-28T01:54:28.925Z,86.40
2023-01-28T01:57:18.983Z,86.50
2023-01-28T02:00:07.125Z,86.50
2023-01-28T02:02:53.810Z,86.30
2023-01-28T02:05:40.289Z,86.10
2023-01-28T02:08:25.827Z,86.10
2023-01-28T02:11:14.317Z,86.40
2023-01-28T02:14:04.441Z,86.20
2023-01-28T02:16:49.992Z,86.10
2023-01-28T02:19:59.239Z,85.60
2023-01-28T02:23:09.717Z,85.40
2023-01-28T02:26:03.826Z,85.60
2023-01-28T02:28:59.744Z,85.30
2023-01-28T02:31:57.604Z,85.10
2023-01-28T02:34:51.949Z,85.50
2023-01-28T02:38:00.581Z,84.80
2023-01-28T02:41:05.963Z,84.40
2023-01-28T02:43:51.350Z,84.10
2023-01-28T02:46:57.003Z,84.20
2023-01-28T02:49:55.198Z,84.30
2023-01-28T02:53:02.402Z,84.40
2023-01-28T02:56:29.570Z,84.30
2023-01-28T02:59:36.886Z,84.60
2023-01-28T03:02:36.698Z,85.10
2023-01-28T03:05:38.963Z,85.10
2023-01-28T03:08:43.892Z,86.00
2023-01-28T03:11:51.363Z,86.10
2023-01-28T03:14:57.239Z,86.20
2023-01-28T03:18:13.448Z,86.50
2023-01-28T03:21:33.124Z,86.60
2023-01-28T03:24:42.794Z,86.80
2023-01-28T03:28:08.964Z,86.80
2023-01-28T03:31:23.457Z,86.70
2023-01-28T03:34:29.993Z,86.80
2023-01-28T03:37:15.300Z,86.30
2023-01-28T03:40:08.371Z,86.10
2023-01-28T03:42:54.283Z,85.50
2023-01-28T03:45:39.522Z,85.60
2023-01-28T03:48:27.012Z,85.70
2023-01-28T03:51:12.464Z,85.50
2023-01-28T03:53:58.149Z,85.90
2023-01-28T03:56:43.662Z,85.50
2023-01-28T03:59:29.441Z,85.50
2023-01-28T04:02:15.475Z,85.10
2023-01-28T04:05:00.732Z,85.40
2023-01-28T04:07:46.356Z,85.50
2023-01-28T04:10:31.827Z,85.20
2023-01-28T04:13:18.364Z,85.20
2023-01-28T04:16:05.657Z,85.60
2023-01-28T04:18:51.364Z,84.70
2023-01-28T04:21:37.394Z,85.00
2023-01-28T04:24:23.726Z,84.90
2023-01-28T04:27:09.281Z,85.80
2023-01-28T04:29:54.772Z,84.70
2023-01-28T04:32:40.365Z,84.80
2023-01-28T04:35:25.912Z,85.20
2023-01-28T04:38:11.548Z,85.00
2023-01-28T04:40:56.950Z,85.30
2023-01-28T04:43:42.451Z,85.40
2023-01-28T04:46:28.001Z,85.90
2023-01-28T04:49:13.721Z,86.10
2023-01-28T04:51:59.283Z,86.00
2023-01-28T04:54:44.778Z,86.30
2023-01-28T04:57:30.274Z,86.40
2023-01-28T05:00:15.988Z,86.70
2023-01-28T05:03:01.271Z,86.90
2023-01-28T05:05:46.983Z,86.80
2023-01-28T05:08:32.306Z,87.30
2023-01-28T05:11:18.035Z,87.30
2023-01-28T05:14:03.381Z,87.10
2023-01-28T05:16:50.583Z,87.10
2023-01-28T05:19:36.107Z,87.20
2023-01-28T05:22:21.580Z,86.80
2023-01-28T05:25:08.070Z,87.30
2023-01-28T05:27:53.543Z,87.80
2023-01-28T05:30:39.461Z,87.60
2023-01-28T05:33:25.123Z,86.70
2023-01-28T05:36:10.575Z,87.40
2023-01-28T05:38:56.116Z,87.30
2023-01-28T05:41:41.875Z,87.40
2023-01-28T05:44:27.220Z,87.20
2023-01-28T05:47:12.561Z,87.60
2023-01-28T05:49:57.934Z,88.20
2023-01-28T05:52:43.709Z,88.20
2023-01-28T05:55:28.993Z,88.60
2023-01-28T05:58:14.551Z,88.60
2023-01-28T06:01:00.144Z,88.00
2023-01-28T06:03:45.539Z,87.90
2023-01-28T06:06:31.049Z,88.60
2023-01-28T06:09:16.571Z,88.80
2023-01-28T06:12:02.109Z,89.20
2023-01-28T06:14:47.659Z,89.30
2023-01-28T06:17:32.901Z,89.60
2023-01-28T06:20:19.326Z,89.30
2023-01-28T06:23:05.474Z,89.70
2023-01-28T06:25:55.097Z,89.00
2023-01-28T06:28:40.848Z,88.90
2023-01-28T06:31:26.356Z,88.90
2023-01-28T06:34:11.937Z,89.20
2023-01-28T06:36:57.417Z,89.30
2023-01-28T06:39:42.678Z,90.00
2023-01-28T06:42:28.686Z,89.60
2023-01-28T06:45:14.456Z,89.60
2023-01-28T06:48:00.113Z,89.80
2023-01-28T06:50:47.731Z,88.90
2023-01-28T06:53:33.069Z,89.00
2023-01-28T06:56:18.595Z,89.40
2023-01-28T06:59:04.306Z,88.90
2023-01-28T07:01:49.619Z,88.90
2023-01-28T07:04:35.257Z,88.80
2023-01-28T07:07:20.977Z,88.40
2023-01-28T07:10:06.954Z,88.20
2023-01-28T07:12:52.410Z,87.60
2023-01-28T07:15:38.133Z,88.00
2023-01-28T07:18:23.486Z,88.20
2023-01-28T07:21:08.755Z,88.00
2023-01-28T07:23:54.320Z,88.80
2023-01-28T07:26:39.973Z,89.00
2023-01-28T07:29:25.290Z,88.90
2023-01-28T07:32:10.615Z,88.40
2023-01-28T07:34:56.204Z,87.50
2023-01-28T07:37:41.575Z,87.70
2023-01-28T07:40:27.815Z,88.50
2023-01-28T07:43:13.378Z,87.50
2023-01-28T07:46:02.017Z,87.70
2023-01-28T07:48:47.386Z,87.50
2023-01-28T07:51:32.947Z,87.40
2023-01-28T07:54:18.412Z,88.00
2023-01-28T07:57:09.995Z,87.80
2023-01-28T07:59:55.295Z,88.70
2023-01-28T08:02:40.571Z,88.60
2023-01-28T08:05:30.212Z,87.90
2023-01-28T08:08:17.165Z,87.30
2023-01-28T08:11:11.897Z,87.40
2023-01-28T08:13:57.083Z,88.60
2023-01-28T08:16:43.025Z,88.30
2023-01-28T08:19:28.747Z,87.80
2023-01-28T08:22:14.113Z,88.00
2023-01-28T08:24:59.459Z,88.60
2023-01-28T08:27:44.712Z,87.70
2023-01-28T08:30:30.634Z,87.20
2023-01-28T08:33:17.774Z,88.10
2023-01-28T08:36:04.954Z,88.20
2023-01-28T08:38:54.417Z,88.20
2023-01-28T08:41:39.629Z,87.70
2023-01-28T08:44:25.083Z,87.70
2023-01-28T08:47:10.656Z,87.60
2023-01-28T08:49:56.150Z,87.30
2023-01-28T08:52:44.426Z,87.50
2023-01-28T08:55:30.751Z,87.40
2023-01-28T08:58:18.589Z,87.00
2023-01-28T09:01:07.439Z,86.90
2023-01-28T09:03:53.171Z,86.90
2023-01-28T09:06:38.541Z,87.40
2023-01-28T09:09:23.952Z,86.70
2023-01-28T09:12:11.170Z,86.40
2023-01-28T09:14:56.609Z,86.40
2023-01-28T09:17:41.847Z,85.90
2023-01-28T09:20:27.953Z,85.10
2023-01-28T09:23:14.085Z,84.60
2023-01-28T09:26:03.727Z,84.00
2023-01-28T09:28:49.084Z,84.00
2023-01-28T09:31:34.614Z,82.40
2023-01-28T09:34:20.108Z,83.40
2023-01-28T09:37:05.699Z,82.50
2023-01-28T09:39:51.121Z,81.20
2023-01-28T09:42:58.392Z,80.20
2023-01-28T09:45:56.831Z,79.30
2023-01-28T09:48:49.491Z,78.70
2023-01-28T09:51:44.835Z,77.70
2023-01-28T09:54:42.371Z,75.60
2023-01-28T09:57:43.331Z,75.20
2023-01-28T10:00:47.510Z,75.60
2023-01-28T10:03:45.452Z,74.70
2023-01-28T10:07:08.654Z,76.20
2023-01-28T10:09:58.328Z,78.20
2023-01-28T10:13:03.725Z,75.50
2023-01-28T10:16:16.929Z,75.20
2023-01-28T10:19:10.617Z,73.90
2023-01-28T10:22:01.689Z,73.20
2023-01-28T10:24:53.187Z,75.00
2023-01-28T10:27:38.837Z,73.00
2023-01-28T10:30:35.214Z,73.40
2023-01-28T10:33:40.004Z,72.70
2023-01-28T10:36:25.538Z,73.10
2023-01-28T10:39:15.023Z,72.10
2023-01-28T10:42:00.268Z,71.80
2023-01-28T10:44:47.447Z,73.40
2023-01-28T10:47:41.254Z,72.50
2023-01-28T10:50:29.016Z,72.80
2023-01-28T10:53:14.260Z,71.10
2023-01-28T10:56:01.217Z,71.30
2023-01-28T10:58:54.311Z,69.80
2023-01-28T11:01:45.677Z,69.80
2023-01-28T11:04:36.092Z,69.90
2023-01-28T11:07:21.875Z,70.40
2023-01-28T11:10:29.045Z,68.70
2023-01-28T11:13:28.804Z,67.70
2023-01-28T11:16:18.694Z,66.70
2023-01-28T11:19:06.468Z,65.90
2023-01-28T11:21:55.455Z,66.10
2023-01-28T11:24:43.121Z,65.50
2023-01-28T11:27:31.043Z,64.80
2023-01-28T11:30:22.896Z,64.40
2023-01-28T11:33:16.415Z,61.80
2023-01-28T11:36:25.109Z,61.90
2023-01-28T11:39:25.893Z,62.20
2023-01-28T11:42:22.123Z,61.70
2023-01-28T11:45:16.977Z,59.00
2023-01-28T11:48:38.884Z,60.50
2023-01-28T11:51:33.201Z,60.40
2023-01-28T11:54:27.163Z,60.70
2023-01-28T11:57:27.319Z,60.90
2023-01-28T12:00:27.753Z,59.80
2023-01-28T12:03:41.702Z,60.00
2023-01-28T12:06:55.105Z,60.20
2023-01-28T12:09:49.153Z,58.60
2023-01-28T12:12:51.955Z,59.40
2023-01-28T12:15:40.385Z,59.10
2023-01-28T12:18:51.574Z,59.40
2023-01-28T12:22:06.275Z,58.80
2023-01-28T12:25:18.474Z,59.80
2023-01-28T12:28:30.757Z,58.60
2023-01-28T12:31:48.681Z,58.80
2023-01-28T12:35:06.929Z,58.80
2023-01-28T12:38:01.269Z,58.10
2023-01-28T12:41:04.866Z,58.30
2023-01-28T12:44:11.994Z,59.10
2023-01-28T12:47:13.098Z,59.10
2023-01-28T12:50:05.918Z,58.80
2023-01-28T12:52:58.319Z,58.10
2023-01-28T12:55:48.766Z,58.30
2023-01-28T12:59:15.874Z,58.10
2023-01-28T13:02:15.126Z,58.50
2023-01-28T13:05:28.766Z,57.90
2023-01-28T13:08:18.132Z,58.50
2023-01-28T13:11:05.491Z,57.70
2023-01-28T13:13:51.483Z,58.20
2023-01-28T13:16:38.306Z,58.70
2023-01-28T13:19:35.837Z,58.40
2023-01-28T13:22:37.903Z,58.50
2023-01-28T13:25:28.055Z,57.90
2023-01-28T13:28:31.631Z,57.50
2023-01-28T13:31:19.121Z,57.30
2023-01-28T13:34:06.927Z,58.20
2023-01-28T13:36:53.518Z,56.80
2023-01-28T13:39:39.449Z,57.70
2023-01-28T13:42:28.055Z,58.60
2023-01-28T13:45:16.757Z,58.10
2023-01-28T13:48:27.421Z,58.20
2023-01-28T13:51:34.529Z,58.60
2023-01-28T13:54:23.799Z,58.30
2023-01-28T13:57:43.144Z,59.00
2023-01-28T14:00:56.960Z,58.70
2023-01-28T14:04:23.649Z,59.00
2023-01-28T14:07:09.148Z,58.50
2023-01-28T14:10:18.050Z,59.00
2023-01-28T14:13:33.284Z,59.20
2023-01-28T14:16:30.696Z,58.80
2023-01-28T14:19:16.243Z,58.40
2023-01-28T14:22:07.783Z,58.20
2023-01-28T14:24:53.274Z,58.20
2023-01-28T14:27:44.150Z,58.40
2023-01-28T14:30:49.018Z,58.20
2023-01-28T14:33:35.435Z,57.50
2023-01-28T14:36:21.249Z,57.10
2023-01-28T14:39:12.384Z,58.10
2023-01-28T14:42:00.439Z,57.80
2023-01-28T14:44:48.376Z,56.30
2023-01-28T14:47:42.796Z,56.70
2023-01-28T14:50:38.038Z,56.80
2023-01-28T14:53:46.471Z,56.80
2023-01-28T14:56:37.088Z,56.90
2023-01-28T14:59:33.027Z,55.70
2023-01-28T15:02:27.858Z,56.50
2023-01-28T15:05:25.598Z,61.70
2023-01-28T15:08:21.487Z,59.40
2023-01-28T15:11:13.358Z,60.40
2023-01-28T15:14:00.007Z,58.60
2023-01-28T15:16:48.943Z,57.90
2023-01-28T15:19:37.391Z,57.90
2023-01-28T15:22:28.116Z,58.60
2023-01-28T15:25:24.271Z,58.00
2023-01-28T15:28:17.368Z,58.40
2023-01-28T15:31:04.175Z,56.80
2023-01-28T15:34:13.496Z,57.20
2023-01-28T15:37:02.470Z,57.40
2023-01-28T15:39:49.959Z,56.60
2023-01-28T15:42:35.538Z,57.90
2023-01-28T15:45:23.508Z,58.30
2023-01-28T15:48:08.974Z,58.60
2023-01-28T15:51:00.397Z,58.20
2023-01-28T15:53:49.890Z,58.40
2023-01-28T15:56:36.526Z,58.20
2023-01-28T15:59:34.024Z,58.10
2023-01-28T16:02:24.729Z,58.50
2023-01-28T16:05:34.912Z,58.20
2023-01-28T16:08:37.407Z,58.50
2023-01-28T16:11:45.058Z,57.70
2023-01-28T16:14:43.101Z,59.80
2023-01-28T16:17:31.583Z,63.20
2023-01-28T16:20:26.341Z,63.60
2023-01-28T16:23:22.671Z,62.50
2023-01-28T16:26:22.384Z,61.90
2023-01-28T16:29:15.812Z,60.60
2023-01-28T16:32:03.122Z,60.70
2023-01-28T16:34:48.662Z,60.40
2023-01-28T16:37:34.393Z,61.10
2023-01-28T16:40:22.425Z,60.40
2023-01-28T16:43:12.667Z,60.60
2023-01-28T16:45:58.327Z,60.20
2023-01-28T16:48:43.894Z,60.60
2023-01-28T16:51:29.981Z,59.70
2023-01-28T16:54:16.631Z,60.40
2023-01-28T16:57:02.315Z,60.30
2023-01-28T16:59:47.684Z,60.40
2023-01-28T17:02:33.027Z,59.60
2023-01-28T17:05:19.972Z,59.90
2023-01-28T17:08:05.439Z,60.00
2023-01-28T17:10:55.286Z,59.50
2023-01-28T17:13:41.152Z,59.60
2023-01-28T17:16:27.284Z,59.30
2023-01-28T17:19:12.799Z,59.50
2023-01-28T17:21:59.530Z,59.70
2023-01-28T17:24:44.819Z,59.60
2023-01-28T17:27:30.449Z,60.20
2023-01-28T17:30:19.303Z,60.20
2023-01-28T17:33:04.758Z,59.50
2023-01-28T17:35:50.151Z,59.70
2023-01-28T17:38:36.028Z,59.00
2023-01-28T17:41:21.621Z,59.10
2023-01-28T17:44:07.478Z,60.60
2023-01-28T17:46:52.943Z,58.20
2023-01-28T17:49:38.388Z,59.10
2023-01-28T17:52:24.378Z,58.50
2023-01-28T17:55:10.955Z,58.80
2023-01-28T17:57:56.579Z,59.70
2023-01-28T18:00:41.938Z,59.10
2023-01-28T18:03:27.222Z,57.80
2023-01-28T18:06:12.654Z,58.10
2023-01-28T18:08:58.416Z,57.30
2023-01-28T18:11:44.039Z,58.00
2023-01-28T18:14:29.405Z,58.10
2023-01-28T18:17:14.713Z,58.40
2023-01-28T18:20:00.331Z,57.30
2023-01-28T18:22:45.826Z,59.10
2023-01-28T18:25:31.410Z,57.70
2023-01-28T18:28:17.044Z,57.40
2023-01-28T18:31:07.091Z,58.40
2023-01-28T18:33:52.627Z,58.20
2023-01-28T18:36:38.031Z,57.70
2023-01-28T18:39:24.214Z,58.40
2023-01-28T18:42:09.872Z,57.80
2023-01-28T18:44:55.307Z,58.40
2023-01-28T18:47:41.522Z,57.90
2023-01-28T18:50:26.753Z,58.50
2023-01-28T18:53:12.210Z,58.60
2023-01-28T18:56:02.098Z,58.40
2023-01-28T18:58:47.737Z,57.80
2023-01-28T19:01:34.734Z,57.60
2023-01-28T19:04:20.470Z,57.30
2023-01-28T19:07:08.134Z,57.90
2023-01-28T19:09:53.959Z,57.40
2023-01-28T19:12:39.543Z,57.10
2023-01-28T19:15:25.133Z,57.50
2023-01-28T19:18:10.437Z,57.40
2023-01-28T19:20:56.074Z,57.90
2023-01-28T19:23:49.936Z,57.70
2023-01-28T19:26:36.289Z,57.80
2023-01-28T19:29:21.751Z,57.50
2023-01-28T19:32:07.429Z,58.30
2023-01-28T19:34:52.958Z,58.20
2023-01-28T19:37:38.421Z,57.70
2023-01-28T19:40:24.048Z,57.90
2023-01-28T19:43:09.361Z,58.10
2023-01-28T19:45:56.606Z,58.60
2023-01-28T19:48:42.362Z,58.00
2023-01-28T19:51:28.008Z,58.00
2023-01-28T19:54:13.559Z,58.60
2023-01-28T19:56:58.890Z,58.20
2023-01-28T19:59:44.092Z,58.40
2023-01-28T20:02:29.566Z,58.40
2023-01-28T20:05:15.471Z,58.60
2023-01-28T20:08:01.582Z,58.40
2023-01-28T20:10:47.080Z,58.60
2023-01-28T20:13:34.123Z,58.70
2023-01-28T20:16:28.567Z,58.80
2023-01-28T20:19:16.958Z,59.60
2023-01-28T20:22:02.808Z,59.50
2023-01-28T20:24:50.520Z,59.70
2023-01-28T20:27:35.848Z,59.50
2023-01-28T20:30:26.230Z,59.60
2023-01-28T20:33:11.397Z,59.50
2023-01-28T20:36:08.455Z,60.10
2023-01-28T20:38:53.922Z,59.90
2023-01-28T20:41:39.431Z,60.60
2023-01-28T20:44:26.702Z,59.80
2023-01-28T20:47:12.251Z,59.60
2023-01-28T20:49:57.916Z,59.90
2023-01-28T20:52:43.468Z,60.00
2023-01-28T20:55:29.180Z,60.00
2023-01-28T20:58:14.442Z,60.40
2023-01-28T21:01:00.641Z,60.70
2023-01-28T21:03:46.373Z,60.30
2023-01-28T21:06:32.522Z,60.90
2023-01-28T21:09:17.788Z,61.00
2023-01-28T21:12:03.443Z,60.40
2023-01-28T21:14:50.289Z,60.10
2023-01-28T21:17:35.839Z,61.10
2023-01-28T21:20:21.443Z,60.60
2023-01-28T21:23:07.048Z,61.30
2023-01-28T21:25:52.687Z,61.00
2023-01-28T21:28:38.102Z,61.00
2023-01-28T21:31:25.980Z,61.30
2023-01-28T21:34:11.395Z,61.40
2023-01-28T21:36:56.701Z,61.80
2023-01-28T21:39:42.334Z,61.50
2023-01-28T21:42:28.756Z,61.50
2023-01-28T21:45:14.427Z,61.50
2023-01-28T21:47:59.746Z,61.30
2023-01-28T21:51:03.727Z,61.70
2023-01-28T21:53:49.455Z,61.50
2023-01-28T21:56:35.046Z,61.90
2023-01-28T21:59:30.204Z,62.00
2023-01-28T22:02:15.770Z,62.20
2023-01-28T22:05:01.058Z,62.40
2023-01-28T22:07:46.506Z,62.20
2023-01-28T22:10:32.032Z,62.60
2023-01-28T22:13:17.807Z,62.10
2023-01-28T22:16:04.193Z,61.70
2023-01-28T22:18:50.257Z,62.00
2023-01-28T22:21:41.189Z,62.30
2023-01-28T22:24:27.256Z,62.20
2023-01-28T22:27:14.024Z,61.90
2023-01-28T22:29:59.699Z,62.10
2023-01-28T22:32:45.031Z,62.30
2023-01-28T22:35:30.465Z,62.40
2023-01-28T22:38:16.031Z,62.10
2023-01-28T22:41:13.391Z,62.10
2023-01-28T22:44:01.610Z,62.20
2023-01-28T22:46:47.668Z,62.20
2023-01-28T22:49:33.122Z,61.90
2023-01-28T22:52:18.544Z,62.40
2023-01-28T22:55:04.951Z,62.40
2023-01-28T22:57:52.093Z,62.30
2023-01-28T23:00:38.983Z,62.70
2023-01-28T23:03:24.483Z,63.40
2023-01-28T23:06:10.077Z,62.80
2023-01-28T23:08:56.557Z,62.60
2023-01-28T23:11:41.795Z,62.40
2023-01-28T23:14:45.981Z,62.30
2023-01-28T23:17:49.870Z,62.10
2023-01-28T23:20:53.854Z,62.60
2023-01-28T23:23:57.581Z,62.50
2023-01-28T23:26:42.880Z,62.30
2023-01-28T23:29:29.643Z,62.60
2023-01-28T23:32:15.127Z,62.80
2023-01-28T23:35:00.548Z,63.00
2023-01-28T23:37:47.114Z,62.80
2023-01-28T23:40:32.760Z,62.80
2023-01-28T23:43:18.040Z,63.30
2023-01-28T23:46:03.607Z,62.70
2023-01-28T23:48:48.933Z,62.60
2023-01-28T23:51:34.485Z,62.60
2023-01-28T23:54:20.238Z,62.80
2023-01-28T23:57:07.125Z,62.40
2023-01-28T23:59:52.612Z,63.00
